Time;durP1;ratioP1;P1;durP2;ratioP2;P2;SDS_P1;SDS_P2;PMS_P1;PMS_P2;Temp;Humidity;BMP_temperature;BMP_pressure;BME280_temperature;BME280_humidity;BME280_pressure;Samples;Min_cycle;Max_cycle;Signal;HPM_P1;HPM_P2
2023/10/31 00:01:49;;;;;;;5.78;2.85;;;;;;;;;;5029101;28;20065;-82
2023/10/31 00:04:14;;;;;;;5.68;2.75;;;;;;;;;;5019865;28;20022;-85
2023/10/31 00:06:40;;;;;;;7.60;3.10;;;;;;;;;;5024758;28;20037;-85
2023/10/31 00:09:05;;;;;;;6.15;2.60;;;;;;;;;;5026445;28;20037;-85
2023/10/31 00:11:31;;;;;;;5.22;2.40;;;;;;;;;;5023146;28;20045;-86
2023/10/31 00:13:56;;;;;;;5.22;2.30;;;;;;;;;;5028350;28;20104;-85
2023/10/31 00:16:21;;;;;;;5.00;2.50;;;;;;;;;;5028192;28;20033;-86
2023/10/31 00:18:47;;;;;;;7.38;2.90;;;;;;;;;;5025626;28;20025;-86
2023/10/31 00:21:12;;;;;;;4.15;2.63;;;;;;;;;;5041948;28;20032;-85
2023/10/31 00:23:45;;;;;;;4.95;3.25;;;;;;;;;;5022906;28;20029;-85
2023/10/31 00:26:11;;;;;;;6.18;3.30;;;;;;;;;;5017969;28;20083;-86
2023/10/31 00:28:36;;;;;;;7.30;3.17;;;;;;;;;;5020284;28;20029;-85
2023/10/31 00:31:03;;;;;;;5.53;3.45;;;;;;;;;;5025285;28;20033;-85
2023/10/31 00:33:29;;;;;;;7.47;3.55;;;;;;;;;;5027861;28;20033;-85
2023/10/31 00:35:54;;;;;;;7.13;4.25;;;;;;;;;;5028927;28;20393;-85
2023/10/31 00:38:20;;;;;;;8.40;4.93;;;;;;;;;;5029004;28;20025;-85
2023/10/31 00:40:45;;;;;;;18.83;5.97;;;;;;;;;;5033183;28;20112;-85
2023/10/31 00:43:11;;;;;;;7.45;5.50;;;;;;;;;;5032956;28;20038;-86
2023/10/31 00:45:36;;;;;;;10.18;5.80;;;;;;;;;;5038258;28;20129;-85
2023/10/31 00:48:01;;;;;;;9.15;5.70;;;;;;;;;;5031393;28;20033;-85
2023/10/31 00:50:27;;;;;;;10.02;5.85;;;;;;;;;;5020685;28;20033;-85
2023/10/31 00:52:53;;;;;;;9.88;6.05;;;;;;;;;;5026441;28;20029;-86
2023/10/31 00:55:18;;;;;;;7.07;5.35;;;;;;;;;;5029818;28;20082;-86
2023/10/31 00:57:43;;;;;;;10.68;5.70;;;;;;;;;;5025956;28;20182;-85
2023/10/31 01:00:09;;;;;;;6.97;5.03;;;;;;;;;;5031859;28;20025;-85
2023/10/31 01:02:35;;;;;;;7.75;4.78;;;;;;;;;;5026263;28;20373;-86
2023/10/31 01:05:00;;;;;;;7.40;4.68;;;;;;;;;;5029838;28;20106;-85
2023/10/31 01:07:26;;;;;;;9.52;4.53;;;;;;;;;;5028227;28;20500;-86
2023/10/31 01:09:51;;;;;;;8.98;4.53;;;;;;;;;;5028036;28;20067;-85
2023/10/31 01:12:16;;;;;;;7.45;4.38;;;;;;;;;;5030181;28;20060;-85
2023/10/31 01:14:42;;;;;;;7.07;4.07;;;;;;;;;;5034564;28;20022;-86
2023/10/31 01:17:07;;;;;;;6.28;4.13;;;;;;;;;;5036400;28;21414;-86
2023/10/31 01:19:33;;;;;;;6.18;3.67;;;;;;;;;;5021226;28;20027;-86
2023/10/31 01:21:58;;;;;;;7.68;3.97;;;;;;;;;;5044854;28;20040;-86
2023/10/31 01:24:23;;;;;;;7.20;3.88;;;;;;;;;;5024130;28;20084;-85
2023/10/31 01:26:49;;;;;;;8.95;3.80;;;;;;;;;;5021135;28;20116;-87
2023/10/31 01:29:14;;;;;;;6.82;3.38;;;;;;;;;;5027156;28;20393;-86
2023/10/31 01:31:43;;;;;;;8.73;3.95;;;;;;;;;;5024195;28;20029;-86
2023/10/31 01:34:08;;;;;;;7.72;3.83;;;;;;;;;;5016275;28;20650;-86
2023/10/31 01:36:34;;;;;;;6.68;3.38;;;;;;;;;;5030767;28;20036;-92
2023/10/31 01:38:59;;;;;;;7.07;3.33;;;;;;;;;;5026766;28;20029;-84
2023/10/31 01:41:25;;;;;;;6.75;3.50;;;;;;;;;;5027302;28;20033;-84
2023/10/31 01:43:50;;;;;;;9.68;3.90;;;;;;;;;;5025492;28;20052;-84
2023/10/31 01:46:16;;;;;;;7.97;3.50;;;;;;;;;;5026217;28;20108;-84
2023/10/31 01:48:42;;;;;;;7.63;3.80;;;;;;;;;;5023703;28;20033;-84
2023/10/31 01:51:09;;;;;;;7.00;4.15;;;;;;;;;;5029986;28;20425;-84
2023/10/31 01:53:35;;;;;;;7.65;4.40;;;;;;;;;;5026906;28;20029;-85
2023/10/31 01:56:02;;;;;;;7.40;3.97;;;;;;;;;;5026216;28;20029;-84
2023/10/31 01:58:34;;;;;;;9.98;4.43;;;;;;;;;;5026904;28;20672;-84
2023/10/31 02:01:00;;;;;;;8.07;3.83;;;;;;;;;;5022736;28;20021;-81
2023/10/31 02:03:27;;;;;;;10.95;4.65;;;;;;;;;;5030776;28;20557;-82
2023/10/31 02:05:53;;;;;;;8.05;4.13;;;;;;;;;;5020012;28;20172;-83
2023/10/31 02:08:18;;;;;;;9.52;5.30;;;;;;;;;;5019294;28;20034;-82
2023/10/31 02:10:44;;;;;;;9.88;5.05;;;;;;;;;;5025889;28;20032;-84
2023/10/31 02:13:17;;;;;;;10.32;5.53;;;;;;;;;;5040893;28;20029;-84
2023/10/31 02:15:42;;;;;;;8.15;4.78;;;;;;;;;;5027327;28;20017;-83
2023/10/31 02:18:08;;;;;;;10.13;6.68;;;;;;;;;;5021518;28;20040;-82
2023/10/31 02:20:34;;;;;;;11.05;6.55;;;;;;;;;;5027413;28;20025;-82
2023/10/31 02:23:00;;;;;;;10.85;6.70;;;;;;;;;;5027728;28;20390;-82
2023/10/31 02:25:25;;;;;;;13.63;8.68;;;;;;;;;;5025215;28;20029;-82
2023/10/31 02:27:51;;;;;;;12.43;8.68;;;;;;;;;;5021571;28;20025;-82
2023/10/31 02:30:17;;;;;;;15.00;8.98;;;;;;;;;;5026895;28;20046;-82
2023/10/31 02:32:42;;;;;;;12.60;8.60;;;;;;;;;;5028475;28;20021;-81
2023/10/31 02:35:08;;;;;;;15.65;10.63;;;;;;;;;;5041654;28;20200;-82
2023/10/31 02:37:34;;;;;;;16.33;10.15;;;;;;;;;;5027687;28;20162;-82
2023/10/31 02:40:00;;;;;;;16.63;11.63;;;;;;;;;;5025650;28;21928;-83
2023/10/31 02:42:26;;;;;;;20.08;12.35;;;;;;;;;;5039571;28;20604;-82
2023/10/31 02:44:52;;;;;;;20.23;12.05;;;;;;;;;;5019818;28;20045;-84
2023/10/31 02:47:17;;;;;;;17.30;11.80;;;;;;;;;;5024728;28;20030;-83
2023/10/31 02:49:43;;;;;;;18.05;12.23;;;;;;;;;;5030289;28;20401;-91
2023/10/31 02:52:08;;;;;;;18.80;13.23;;;;;;;;;;5023948;28;20036;-92
2023/10/31 02:54:34;;;;;;;17.85;12.50;;;;;;;;;;5030438;28;20017;-87
2023/10/31 02:56:59;;;;;;;16.27;10.93;;;;;;;;;;5022162;28;20040;-90
2023/10/31 02:59:25;;;;;;;18.27;11.35;;;;;;;;;;5026279;28;20496;-90
2023/10/31 03:01:50;;;;;;;15.80;10.63;;;;;;;;;;5030475;28;20057;-91
2023/10/31 03:04:15;;;;;;;16.30;11.60;;;;;;;;;;5026741;28;20033;-89
2023/10/31 03:06:41;;;;;;;15.02;10.98;;;;;;;;;;5031913;28;20032;-89
2023/10/31 03:09:07;;;;;;;15.85;11.25;;;;;;;;;;5026553;28;20485;-89
2023/10/31 03:11:32;;;;;;;16.02;10.95;;;;;;;;;;5026323;28;20108;-86
2023/10/31 03:13:58;;;;;;;15.07;10.70;;;;;;;;;;5026596;28;20087;-87
2023/10/31 03:16:24;;;;;;;14.98;10.10;;;;;;;;;;5024433;28;20021;-87
2023/10/31 03:18:49;;;;;;;14.38;10.05;;;;;;;;;;5022649;28;20032;-88
2023/10/31 03:21:15;;;;;;;13.77;10.50;;;;;;;;;;5038050;28;20029;-92
2023/10/31 03:23:48;;;;;;;16.45;10.60;;;;;;;;;;5023992;28;20424;-90
2023/10/31 03:26:13;;;;;;;13.48;9.40;;;;;;;;;;5040092;28;20030;-91
2023/10/31 03:28:38;;;;;;;24.75;9.73;;;;;;;;;;5025005;28;20162;-91
2023/10/31 03:31:04;;;;;;;14.07;9.10;;;;;;;;;;5028006;28;20040;-91
2023/10/31 03:33:29;;;;;;;11.45;8.68;;;;;;;;;;5027926;28;20021;-91
2023/10/31 03:35:55;;;;;;;15.23;9.73;;;;;;;;;;5025967;28;20047;-91
2023/10/31 03:38:20;;;;;;;14.77;9.25;;;;;;;;;;5040401;28;20037;-89
2023/10/31 03:40:45;;;;;;;13.13;8.73;;;;;;;;;;5026233;28;20022;-91
2023/10/31 03:43:11;;;;;;;14.00;8.07;;;;;;;;;;5024231;28;20071;-89
2023/10/31 03:45:36;;;;;;;13.35;8.43;;;;;;;;;;5037342;28;20031;-90
2023/10/31 03:48:02;;;;;;;12.32;8.18;;;;;;;;;;5022483;28;20869;-87
2023/10/31 03:50:27;;;;;;;13.35;8.38;;;;;;;;;;5023157;28;20040;-92
2023/10/31 03:52:53;;;;;;;13.30;9.07;;;;;;;;;;5022709;28;20087;-91
2023/10/31 03:55:18;;;;;;;15.98;8.75;;;;;;;;;;5021343;28;20021;-84
2023/10/31 03:57:44;;;;;;;15.93;9.50;;;;;;;;;;5022343;28;20092;-84
2023/10/31 04:00:11;;;;;;;15.23;10.07;;;;;;;;;;5019235;28;20041;-84
2023/10/31 04:02:36;;;;;;;14.40;10.05;;;;;;;;;;5025601;28;20108;-84
2023/10/31 04:05:02;;;;;;;16.92;10.18;;;;;;;;;;5027774;28;20471;-84
2023/10/31 04:07:27;;;;;;;14.82;9.90;;;;;;;;;;5027389;28;20489;-84
2023/10/31 04:09:53;;;;;;;12.80;8.20;;;;;;;;;;5020621;28;20100;-85
2023/10/31 04:12:19;;;;;;;15.05;9.35;;;;;;;;;;5019823;28;20051;-84
2023/10/31 04:14:44;;;;;;;12.20;8.57;;;;;;;;;;5023083;28;20401;-84
2023/10/31 04:17:10;;;;;;;13.65;8.82;;;;;;;;;;5025188;28;20052;-84
2023/10/31 04:19:36;;;;;;;14.85;9.77;;;;;;;;;;5025624;28;20033;-84
2023/10/31 04:22:01;;;;;;;14.70;9.45;;;;;;;;;;5025618;28;20052;-84
2023/10/31 04:24:27;;;;;;;15.98;9.82;;;;;;;;;;5021833;28;20029;-84
2023/10/31 04:26:52;;;;;;;14.55;10.27;;;;;;;;;;5022140;28;20056;-84
2023/10/31 04:29:18;;;;;;;14.10;9.13;;;;;;;;;;5023174;28;20397;-84
2023/10/31 04:31:43;;;;;;;17.27;9.60;;;;;;;;;;5021420;28;20029;-83
2023/10/31 04:34:08;;;;;;;17.33;8.95;;;;;;;;;;5026896;28;20036;-85
2023/10/31 04:36:34;;;;;;;15.80;8.77;;;;;;;;;;5026983;28;20243;-84
2023/10/31 04:38:59;;;;;;;14.63;9.35;;;;;;;;;;5024877;28;20033;-84
2023/10/31 04:41:25;;;;;;;12.73;7.90;;;;;;;;;;5030505;28;20064;-82
2023/10/31 04:43:50;;;;;;;13.85;8.25;;;;;;;;;;5023256;28;20457;-83
2023/10/31 04:46:16;;;;;;;12.30;7.65;;;;;;;;;;5016118;28;20034;-82
2023/10/31 04:48:41;;;;;;;17.58;9.20;;;;;;;;;;5024352;28;20057;-83
2023/10/31 04:51:07;;;;;;;14.15;8.30;;;;;;;;;;5024297;28;20520;-82
2023/10/31 04:53:34;;;;;;;17.20;9.82;;;;;;;;;;5023876;28;20068;-83
2023/10/31 04:55:59;;;;;;;16.75;9.55;;;;;;;;;;5024476;28;20025;-82
2023/10/31 04:58:25;;;;;;;14.63;9.63;;;;;;;;;;5024320;28;20087;-82
2023/10/31 05:00:53;;;;;;;15.25;10.68;;;;;;;;;;5015246;28;20033;-82
2023/10/31 05:03:20;;;;;;;16.90;11.07;;;;;;;;;;5016329;28;20030;-82
2023/10/31 05:05:45;;;;;;;17.65;12.15;;;;;;;;;;5015967;28;20425;-82
2023/10/31 05:08:12;;;;;;;18.27;12.25;;;;;;;;;;5018296;28;20017;-82
2023/10/31 05:10:37;;;;;;;17.55;11.57;;;;;;;;;;5017304;28;20136;-81
2023/10/31 05:13:03;;;;;;;16.98;11.88;;;;;;;;;;5019804;28;20029;-83
2023/10/31 05:15:28;;;;;;;16.83;11.35;;;;;;;;;;5020808;28;20105;-82
2023/10/31 05:17:54;;;;;;;17.88;11.73;;;;;;;;;;5019966;28;20389;-81
2023/10/31 05:20:20;;;;;;;16.35;11.20;;;;;;;;;;5028278;28;20022;-82
2023/10/31 05:22:45;;;;;;;15.82;10.55;;;;;;;;;;5027161;28;20445;-82
2023/10/31 05:25:12;;;;;;;15.35;11.05;;;;;;;;;;5025854;28;20026;-83
2023/10/31 05:27:39;;;;;;;15.32;11.20;;;;;;;;;;5040802;28;20070;-83
2023/10/31 05:30:04;;;;;;;15.90;10.15;;;;;;;;;;5022090;28;20148;-82
2023/10/31 05:32:30;;;;;;;14.73;9.65;;;;;;;;;;5008965;28;20140;-84
2023/10/31 05:34:56;;;;;;;16.30;10.32;;;;;;;;;;5036789;28;20597;-82
2023/10/31 05:37:21;;;;;;;14.68;9.98;;;;;;;;;;5030924;28;20033;-82
2023/10/31 05:39:46;;;;;;;14.75;9.75;;;;;;;;;;5021440;28;20075;-83
2023/10/31 05:42:12;;;;;;;13.38;9.65;;;;;;;;;;5024102;28;20036;-82
2023/10/31 05:44:37;;;;;;;13.90;9.35;;;;;;;;;;5020910;28;20061;-82
2023/10/31 05:47:03;;;;;;;13.52;8.73;;;;;;;;;;5023404;28;20029;-83
2023/10/31 05:49:30;;;;;;;12.27;8.02;;;;;;;;;;5044752;28;20034;-82
2023/10/31 05:51:55;;;;;;;12.07;8.20;;;;;;;;;;5018949;28;20029;-83
2023/10/31 05:54:20;;;;;;;10.55;7.60;;;;;;;;;;5030576;28;20029;-82
2023/10/31 05:56:46;;;;;;;13.52;8.40;;;;;;;;;;5022859;28;20030;-82
2023/10/31 05:59:12;;;;;;;12.65;8.55;;;;;;;;;;5018175;28;20053;-85
2023/10/31 06:01:37;;;;;;;13.57;9.18;;;;;;;;;;5032998;28;20032;-84
2023/10/31 06:04:03;;;;;;;17.17;9.95;;;;;;;;;;5025711;28;20029;-84
2023/10/31 06:06:32;;;;;;;13.50;9.30;;;;;;;;;;5018940;28;20025;-86
2023/10/31 06:08:57;;;;;;;14.60;9.93;;;;;;;;;;5022850;28;20470;-84
2023/10/31 06:11:22;;;;;;;15.90;10.32;;;;;;;;;;5008458;28;20036;-86
2023/10/31 06:13:48;;;;;;;16.05;11.38;;;;;;;;;;5019077;28;21335;-87
2023/10/31 06:16:13;;;;;;;15.82;10.32;;;;;;;;;;5022553;28;20079;-87
2023/10/31 06:18:40;;;;;;;15.88;10.98;;;;;;;;;;5013685;28;20033;-85
2023/10/31 06:21:05;;;;;;;18.17;10.77;;;;;;;;;;5020542;28;20056;-88
2023/10/31 06:23:30;;;;;;;15.60;11.05;;;;;;;;;;5020253;28;20053;-83
2023/10/31 06:25:56;;;;;;;20.73;11.48;;;;;;;;;;5027014;28;20051;-83
2023/10/31 06:28:21;;;;;;;17.80;12.20;;;;;;;;;;5038146;28;20030;-82
2023/10/31 06:30:47;;;;;;;18.73;12.38;;;;;;;;;;5027093;28;20041;-82
2023/10/31 06:33:12;;;;;;;19.40;12.38;;;;;;;;;;5035720;28;20555;-82
2023/10/31 06:35:37;;;;;;;21.73;13.27;;;;;;;;;;5017873;28;20032;-82
2023/10/31 06:38:03;;;;;;;18.92;13.27;;;;;;;;;;5022157;28;20242;-82
2023/10/31 06:40:28;;;;;;;18.20;12.02;;;;;;;;;;5023898;28;20022;-82
2023/10/31 06:42:54;;;;;;;16.75;12.45;;;;;;;;;;5031898;28;21332;-83
2023/10/31 06:45:19;;;;;;;19.67;13.27;;;;;;;;;;5021829;28;20033;-84
2023/10/31 06:47:45;;;;;;;18.05;12.25;;;;;;;;;;5020706;28;20033;-82
2023/10/31 06:50:10;;;;;;;18.02;12.25;;;;;;;;;;5030901;28;20083;-92
2023/10/31 06:52:36;;;;;;;16.65;12.38;;;;;;;;;;5029789;28;20044;-92
2023/10/31 06:55:01;;;;;;;16.65;12.13;;;;;;;;;;5027248;28;20086;-93
2023/10/31 06:57:26;;;;;;;16.25;11.10;;;;;;;;;;5021222;28;20068;-93
2023/10/31 06:59:52;;;;;;;15.93;10.88;;;;;;;;;;5024302;28;20044;-90
2023/10/31 07:02:18;;;;;;;16.58;11.23;;;;;;;;;;5024195;28;20040;-88
2023/10/31 07:04:45;;;;;;;14.40;10.05;;;;;;;;;;5021633;28;20032;-91
2023/10/31 07:07:13;;;;;;;14.95;10.43;;;;;;;;;;5022139;28;20087;-89
2023/10/31 07:09:38;;;;;;;14.10;10.25;;;;;;;;;;5038324;28;20048;-89
2023/10/31 07:12:10;;;;;;;15.30;10.52;;;;;;;;;;5031292;28;20469;-91
2023/10/31 07:14:38;;;;;;;15.38;10.00;;;;;;;;;;5015634;28;20025;-91
2023/10/31 07:17:03;;;;;;;14.45;10.20;;;;;;;;;;5022851;28;20033;-91
2023/10/31 07:19:29;;;;;;;13.65;10.23;;;;;;;;;;5025371;28;20033;-91
2023/10/31 07:21:54;;;;;;;14.55;10.15;;;;;;;;;;5021879;28;20036;-89
2023/10/31 07:24:20;;;;;;;16.02;10.20;;;;;;;;;;5020931;28;20085;-91
2023/10/31 07:26:48;;;;;;;14.73;10.00;;;;;;;;;;5022230;28;20029;-88
2023/10/31 07:29:17;;;;;;;14.15;9.65;;;;;;;;;;5022529;28;21827;-87
2023/10/31 07:31:42;;;;;;;13.27;9.18;;;;;;;;;;5019943;28;20128;-92
2023/10/31 07:34:09;;;;;;;15.15;9.50;;;;;;;;;;5032624;28;20111;-88
2023/10/31 07:36:37;;;;;;;13.23;9.35;;;;;;;;;;5021553;28;20032;-90
2023/10/31 07:39:05;;;;;;;11.95;8.48;;;;;;;;;;5040336;28;20022;-93
2023/10/31 07:41:35;;;;;;;12.60;8.93;;;;;;;;;;5021210;28;20025;-89
2023/10/31 07:44:03;;;;;;;12.40;8.77;;;;;;;;;;5031235;28;20044;-88
2023/10/31 07:46:29;;;;;;;12.57;8.65;;;;;;;;;;5024968;28;20022;-87
2023/10/31 07:48:54;;;;;;;14.98;8.90;;;;;;;;;;5028671;28;20548;-87
2023/10/31 07:51:19;;;;;;;12.70;9.13;;;;;;;;;;5028305;28;20450;-88
2023/10/31 07:53:46;;;;;;;11.52;8.27;;;;;;;;;;5035027;28;20029;-87
2023/10/31 07:56:16;;;;;;;12.95;8.57;;;;;;;;;;5031491;28;20022;-88
2023/10/31 07:58:41;;;;;;;13.45;8.95;;;;;;;;;;5026577;28;20064;-88
2023/10/31 08:01:10;;;;;;;14.55;8.45;;;;;;;;;;5030957;28;20080;-81
2023/10/31 08:03:36;;;;;;;14.23;8.30;;;;;;;;;;5029253;28;20116;-83
2023/10/31 08:06:02;;;;;;;12.43;8.10;;;;;;;;;;5026889;28;20088;-83
2023/10/31 08:08:27;;;;;;;11.93;8.20;;;;;;;;;;5025781;28;20489;-83
2023/10/31 08:10:52;;;;;;;10.93;7.82;;;;;;;;;;5030393;28;20155;-83
2023/10/31 08:13:18;;;;;;;11.43;8.10;;;;;;;;;;5027277;28;20087;-83
2023/10/31 08:15:43;;;;;;;11.43;8.10;;;;;;;;;;5031105;28;20096;-82
2023/10/31 08:18:09;;;;;;;11.55;8.27;;;;;;;;;;5030706;28;20482;-83
2023/10/31 08:20:35;;;;;;;13.63;8.30;;;;;;;;;;5026923;28;20032;-84
2023/10/31 08:23:00;;;;;;;12.05;8.73;;;;;;;;;;5033723;28;20033;-84
2023/10/31 08:25:25;;;;;;;12.38;8.98;;;;;;;;;;5027081;28;20478;-84
2023/10/31 08:27:51;;;;;;;14.00;9.80;;;;;;;;;;5030258;28;20155;-84
2023/10/31 08:30:16;;;;;;;12.45;9.20;;;;;;;;;;5030137;28;20039;-84
2023/10/31 08:32:42;;;;;;;12.13;8.90;;;;;;;;;;5031081;28;20033;-83
2023/10/31 08:35:07;;;;;;;14.75;9.80;;;;;;;;;;5030434;28;20049;-84
2023/10/31 08:37:33;;;;;;;12.68;9.85;;;;;;;;;;5028412;28;20068;-84
2023/10/31 08:39:58;;;;;;;11.73;9.98;;;;;;;;;;5026042;28;20083;-83
2023/10/31 08:42:23;;;;;;;14.20;10.80;;;;;;;;;;5030394;28;20485;-83
2023/10/31 08:44:49;;;;;;;14.23;10.38;;;;;;;;;;5029956;28;20382;-83
2023/10/31 08:47:14;;;;;;;15.05;10.55;;;;;;;;;;5030684;28;20079;-84
2023/10/31 08:49:39;;;;;;;15.80;10.75;;;;;;;;;;5023597;28;20508;-84
2023/10/31 08:52:05;;;;;;;14.13;10.52;;;;;;;;;;5030006;28;20120;-83
2023/10/31 08:54:30;;;;;;;14.88;10.55;;;;;;;;;;5029254;28;20053;-84
2023/10/31 08:56:55;;;;;;;14.70;10.82;;;;;;;;;;5022615;28;20033;-84
2023/10/31 08:59:21;;;;;;;13.98;10.25;;;;;;;;;;5024294;28;20605;-83
2023/10/31 09:01:46;;;;;;;14.65;10.07;;;;;;;;;;5027362;28;20025;-84
2023/10/31 09:04:11;;;;;;;15.25;10.88;;;;;;;;;;5028469;28;20044;-83
2023/10/31 09:06:37;;;;;;;14.57;10.25;;;;;;;;;;5027317;28;20109;-83
2023/10/31 09:09:03;;;;;;;12.55;9.88;;;;;;;;;;5036933;28;20056;-84
2023/10/31 09:11:30;;;;;;;13.57;10.38;;;;;;;;;;5028418;28;20027;-83
2023/10/31 09:13:56;;;;;;;12.48;9.45;;;;;;;;;;5019977;28;20033;-86
2023/10/31 09:16:24;;;;;;;13.73;9.63;;;;;;;;;;5023180;28;20140;-84
2023/10/31 09:18:52;;;;;;;14.45;9.57;;;;;;;;;;5027213;28;20082;-83
2023/10/31 09:21:20;;;;;;;14.52;9.73;;;;;;;;;;5021669;28;20037;-84
2023/10/31 09:23:46;;;;;;;13.10;9.68;;;;;;;;;;5023890;28;20044;-83
2023/10/31 09:26:11;;;;;;;14.45;11.00;;;;;;;;;;5038632;28;20026;-83
2023/10/31 09:28:39;;;;;;;16.10;12.02;;;;;;;;;;5032207;28;20083;-83
2023/10/31 09:31:04;;;;;;;16.35;12.35;;;;;;;;;;5032193;28;20021;-83
2023/10/31 09:33:30;;;;;;;16.00;12.80;;;;;;;;;;5029881;28;20128;-83
2023/10/31 09:35:55;;;;;;;19.00;13.95;;;;;;;;;;5028217;28;20029;-84
2023/10/31 09:38:20;;;;;;;21.00;13.55;;;;;;;;;;5039994;28;20056;-83
2023/10/31 09:40:46;;;;;;;21.13;14.43;;;;;;;;;;5032204;28;20029;-83
2023/10/31 09:43:11;;;;;;;19.45;13.85;;;;;;;;;;5032977;28;20027;-90
2023/10/31 09:45:36;;;;;;;22.02;15.32;;;;;;;;;;5035620;28;20512;-90
2023/10/31 09:48:02;;;;;;;18.73;13.98;;;;;;;;;;5027845;28;20033;-91
2023/10/31 09:50:29;;;;;;;21.33;14.88;;;;;;;;;;5030225;28;20108;-89
2023/10/31 09:52:56;;;;;;;20.98;15.07;;;;;;;;;;5032721;28;20026;-90
2023/10/31 09:55:22;;;;;;;22.77;16.42;;;;;;;;;;5034498;28;20025;-90
2023/10/31 09:57:48;;;;;;;19.88;15.15;;;;;;;;;;5034205;28;20025;-91
2023/10/31 10:00:13;;;;;;;21.35;16.10;;;;;;;;;;5034552;28;20504;-90
2023/10/31 10:02:39;;;;;;;23.67;16.30;;;;;;;;;;5033129;28;20044;-89
2023/10/31 10:05:05;;;;;;;24.30;15.70;;;;;;;;;;5035468;28;20034;-90
2023/10/31 10:07:33;;;;;;;24.27;17.13;;;;;;;;;;5033015;28;20032;-88
2023/10/31 10:10:00;;;;;;;24.98;15.90;;;;;;;;;;5035606;28;20524;-91
2023/10/31 10:12:26;;;;;;;23.27;15.65;;;;;;;;;;5031283;28;20026;-82
2023/10/31 10:14:52;;;;;;;25.70;16.98;;;;;;;;;;5033756;28;20022;-82
2023/10/31 10:17:21;;;;;;;27.60;17.77;;;;;;;;;;5023180;28;20026;-82
2023/10/31 10:19:46;;;;;;;29.35;17.52;;;;;;;;;;5026898;28;20029;-82
2023/10/31 10:22:13;;;;;;;25.02;16.92;;;;;;;;;;5028096;28;20102;-82
2023/10/31 10:24:42;;;;;;;25.75;16.90;;;;;;;;;;5026879;28;20047;-90
2023/10/31 10:27:08;;;;;;;27.73;16.75;;;;;;;;;;5031078;28;20033;-90
2023/10/31 10:29:34;;;;;;;28.80;17.23;;;;;;;;;;5032527;28;20033;-82
2023/10/31 10:32:00;;;;;;;28.17;16.25;;;;;;;;;;5033453;28;20120;-82
2023/10/31 10:34:25;;;;;;;30.38;17.10;;;;;;;;;;5028326;28;20139;-93
2023/10/31 10:36:53;;;;;;;30.23;16.98;;;;;;;;;;5032693;28;20086;-93
2023/10/31 10:39:21;;;;;;;26.80;16.10;;;;;;;;;;5035460;28;20025;-89
2023/10/31 10:41:55;;;;;;;30.45;17.35;;;;;;;;;;5034012;28;20025;-90
2023/10/31 10:44:31;;;;;;;30.05;16.70;;;;;;;;;;5048765;28;20029;-89
2023/10/31 10:46:56;;;;;;;28.27;15.80;;;;;;;;;;5029723;28;20620;-90
2023/10/31 10:49:25;;;;;;;30.95;16.17;;;;;;;;;;5034573;28;20100;-90
2023/10/31 10:52:02;;;;;;;27.00;15.50;;;;;;;;;;5027856;28;20033;-90
2023/10/31 10:55:11;;;;;;;29.92;15.35;;;;;;;;;;5028487;28;20519;-90
2023/10/31 10:57:41;;;;;;;25.58;14.20;;;;;;;;;;5028991;28;20060;-89
2023/10/31 11:00:09;;;;;;;27.88;15.25;;;;;;;;;;5031115;28;20033;-90
2023/10/31 11:02:36;;;;;;;25.15;14.48;;;;;;;;;;5032668;28;20087;-89
2023/10/31 11:05:05;;;;;;;28.50;14.40;;;;;;;;;;5032978;28;20460;-90
2023/10/31 11:07:32;;;;;;;26.50;13.82;;;;;;;;;;5033001;28;20033;-90
2023/10/31 11:09:58;;;;;;;29.92;14.52;;;;;;;;;;5031760;28;20029;-90
2023/10/31 11:12:25;;;;;;;26.25;14.05;;;;;;;;;;5029864;28;20032;-90
2023/10/31 11:14:51;;;;;;;27.45;14.48;;;;;;;;;;5028595;28;20018;-91
2023/10/31 11:17:41;;;;;;;25.83;14.20;;;;;;;;;;5043828;28;20044;-92
2023/10/31 11:20:09;;;;;;;25.80;13.48;;;;;;;;;;5028678;28;20033;-92
2023/10/31 11:22:39;;;;;;;28.13;14.40;;;;;;;;;;5033155;28;20485;-92
2023/10/31 11:25:07;;;;;;;27.75;13.88;;;;;;;;;;5025739;28;20025;-87
2023/10/31 11:27:35;;;;;;;26.27;13.23;;;;;;;;;;5028875;28;20482;-91
2023/10/31 11:30:01;;;;;;;22.83;12.88;;;;;;;;;;5034122;28;20168;-92
2023/10/31 11:32:26;;;;;;;25.00;13.43;;;;;;;;;;5029277;28;20508;-83
2023/10/31 11:34:52;;;;;;;26.67;13.57;;;;;;;;;;5033399;28;20033;-83
2023/10/31 11:37:36;;;;;;;26.10;12.75;;;;;;;;;;5030992;28;20048;-83
2023/10/31 11:40:14;;;;;;;24.25;12.90;;;;;;;;;;5030282;28;20033;-82
2023/10/31 11:42:50;;;;;;;22.55;12.65;;;;;;;;;;5030247;28;20553;-83
2023/10/31 11:45:26;;;;;;;22.70;12.35;;;;;;;;;;5041363;28;20034;-83
2023/10/31 11:47:51;;;;;;;26.05;12.93;;;;;;;;;;5039520;28;20036;-83
2023/10/31 11:50:17;;;;;;;23.10;12.18;;;;;;;;;;5028975;28;20026;-83
2023/10/31 11:52:43;;;;;;;25.67;13.35;;;;;;;;;;5027465;28;20056;-83
2023/10/31 11:55:12;;;;;;;23.88;12.70;;;;;;;;;;5026507;28;20497;-83
2023/10/31 11:57:40;;;;;;;25.63;12.20;;;;;;;;;;5027795;28;20478;-83
2023/10/31 12:00:19;;;;;;;22.90;12.60;;;;;;;;;;5028311;28;20064;-83
2023/10/31 12:02:59;;;;;;;23.02;12.30;;;;;;;;;;5045132;28;20493;-83
2023/10/31 12:05:25;;;;;;;23.33;12.45;;;;;;;;;;5030575;28;20021;-83
2023/10/31 12:07:51;;;;;;;20.05;11.50;;;;;;;;;;5031624;28;20551;-83
2023/10/31 12:10:29;;;;;;;25.13;13.00;;;;;;;;;;5025530;28;20040;-83
2023/10/31 12:12:55;;;;;;;22.50;11.55;;;;;;;;;;5030791;28;20397;-83
2023/10/31 12:15:21;;;;;;;19.23;12.00;;;;;;;;;;5029678;28;20552;-83
2023/10/31 12:17:46;;;;;;;19.38;11.43;;;;;;;;;;5029938;28;20116;-83
2023/10/31 12:20:12;;;;;;;21.80;12.45;;;;;;;;;;5028160;28;20026;-83
2023/10/31 12:22:39;;;;;;;22.48;11.82;;;;;;;;;;5025096;28;20057;-83
2023/10/31 12:25:06;;;;;;;22.40;12.45;;;;;;;;;;5027503;28;20533;-84
2023/10/31 12:27:50;;;;;;;23.40;12.23;;;;;;;;;;5030867;28;20018;-84
2023/10/31 12:30:18;;;;;;;24.15;13.02;;;;;;;;;;5027538;28;20029;-83
2023/10/31 12:32:45;;;;;;;20.02;12.13;;;;;;;;;;5030834;28;20029;-84
2023/10/31 12:35:16;;;;;;;21.35;13.25;;;;;;;;;;5029790;28;20080;-83
2023/10/31 12:37:46;;;;;;;20.95;12.52;;;;;;;;;;5029083;28;20052;-83
2023/10/31 12:40:18;;;;;;;19.35;12.18;;;;;;;;;;5030068;28;20079;-83
2023/10/31 12:42:45;;;;;;;19.70;11.18;;;;;;;;;;5027130;28;20504;-90
2023/10/31 12:45:11;;;;;;;18.83;11.70;;;;;;;;;;5031502;28;20029;-82
2023/10/31 12:47:37;;;;;;;19.10;11.38;;;;;;;;;;5025985;28;20389;-82
2023/10/31 12:50:08;;;;;;;19.27;11.70;;;;;;;;;;5030203;28;20222;-82
2023/10/31 12:52:54;;;;;;;19.70;11.88;;;;;;;;;;5029947;28;20037;-82
2023/10/31 12:55:30;;;;;;;21.25;11.88;;;;;;;;;;5030648;28;20555;-82
2023/10/31 12:57:57;;;;;;;16.33;10.63;;;;;;;;;;5027929;28;20033;-83
2023/10/31 13:00:31;;;;;;;19.10;10.73;;;;;;;;;;5026246;28;20116;-83
2023/10/31 13:03:03;;;;;;;15.40;10.60;;;;;;;;;;5028270;28;20033;-84
2023/10/31 13:05:29;;;;;;;17.90;11.20;;;;;;;;;;5030164;28;20379;-83
2023/10/31 13:07:57;;;;;;;18.02;10.63;;;;;;;;;;5028551;28;20068;-83
2023/10/31 13:10:27;;;;;;;16.45;10.75;;;;;;;;;;5032666;28;20029;-83
2023/10/31 13:12:53;;;;;;;18.02;10.15;;;;;;;;;;5026667;28;20037;-83
2023/10/31 13:15:20;;;;;;;14.10;9.43;;;;;;;;;;5026286;28;20418;-83
2023/10/31 13:17:46;;;;;;;14.38;9.75;;;;;;;;;;5029194;28;20025;-83
2023/10/31 13:20:16;;;;;;;11.93;8.93;;;;;;;;;;5028009;28;20029;-83
2023/10/31 13:22:42;;;;;;;17.13;10.15;;;;;;;;;;5029392;28;20037;-83
2023/10/31 13:25:12;;;;;;;15.10;9.30;;;;;;;;;;5028564;28;20386;-83
2023/10/31 13:27:42;;;;;;;13.32;9.50;;;;;;;;;;5031812;28;20030;-84
2023/10/31 13:30:10;;;;;;;15.80;9.45;;;;;;;;;;5029030;28;20518;-83
2023/10/31 13:32:36;;;;;;;17.25;9.15;;;;;;;;;;5031865;28;20172;-83
2023/10/31 13:35:01;;;;;;;12.25;8.48;;;;;;;;;;5029281;28;20112;-83
2023/10/31 13:37:29;;;;;;;13.82;8.75;;;;;;;;;;5024103;28;20041;-83
2023/10/31 13:39:55;;;;;;;11.55;7.65;;;;;;;;;;5044449;28;20051;-83
2023/10/31 13:42:20;;;;;;;9.30;6.03;;;;;;;;;;5027199;28;20552;-83
2023/10/31 13:44:47;;;;;;;9.30;6.35;;;;;;;;;;5030040;28;20386;-83
2023/10/31 13:47:12;;;;;;;8.38;5.70;;;;;;;;;;5034345;28;20041;-83
2023/10/31 13:49:38;;;;;;;7.30;4.78;;;;;;;;;;5033409;28;20034;-84
2023/10/31 13:52:05;;;;;;;7.72;4.80;;;;;;;;;;5031005;28;20040;-84
2023/10/31 13:54:30;;;;;;;8.82;4.82;;;;;;;;;;5033230;28;20107;-83
2023/10/31 13:56:55;;;;;;;7.07;4.63;;;;;;;;;;5046285;28;20041;-84
2023/10/31 13:59:21;;;;;;;7.50;4.72;;;;;;;;;;5027907;28;20029;-83
2023/10/31 14:01:46;;;;;;;6.95;4.70;;;;;;;;;;5031597;28;20117;-84
2023/10/31 14:04:15;;;;;;;6.38;4.78;;;;;;;;;;5029528;28;20459;-83
2023/10/31 14:06:41;;;;;;;9.77;4.80;;;;;;;;;;5030442;28;20398;-83
2023/10/31 14:09:09;;;;;;;7.97;4.85;;;;;;;;;;5028850;28;20030;-83
2023/10/31 14:11:34;;;;;;;7.43;4.63;;;;;;;;;;5029438;28;20397;-83
2023/10/31 14:14:06;;;;;;;12.23;5.00;;;;;;;;;;5034667;28;20033;-83
2023/10/31 14:16:34;;;;;;;7.45;5.38;;;;;;;;;;5027287;28;20032;-84
2023/10/31 14:18:59;;;;;;;7.13;4.75;;;;;;;;;;5045868;28;20034;-83
2023/10/31 14:21:25;;;;;;;7.38;5.32;;;;;;;;;;5035980;28;20036;-83
2023/10/31 14:23:53;;;;;;;6.50;5.13;;;;;;;;;;5031252;28;20018;-84